sensor_id;sensor_type;location;lat;lon;timestamp;pressure;altitude;pressure_sealevel;temperature;humidity
15050;BME280;7622;42.724;23.250;2023-11-19T00:01:43;94544.63;;;3.92;100.00
15050;BME280;7622;42.724;23.250;2023-11-19T00:04:12;94554.22;;;3.78;100.00
15050;BME280;7622;42.724;23.250;2023-11-19T00:06:39;94561.69;;;3.93;100.00
15050;BME280;7622;42.724;23.250;2023-11-19T00:09:06;94552.97;;;3.83;100.00
15050;BME280;7622;42.724;23.250;2023-11-19T00:11:34;94551.31;;;3.82;100.00
15050;BME280;7622;42.724;23.250;2023-11-19T00:14:01;94552.69;;;3.75;100.00
15050;BME280;7622;42.724;23.250;2023-11-19T00:16:28;94548.25;;;3.77;100.00
15050;BME280;7622;42.724;23.250;2023-11-19T00:18:58;94535.75;;;3.73;100.00
15050;BME280;7622;42.724;23.250;2023-11-19T00:21:25;94550.22;;;3.86;100.00
15050;BME280;7622;42.724;23.250;2023-11-19T00:23:54;94543.53;;;3.84;100.00
15050;BME280;7622;42.724;23.250;2023-11-19T00:26:23;94545.59;;;3.79;100.00
15050;BME280;7622;42.724;23.250;2023-11-19T00:28:50;94557.63;;;3.78;100.00
15050;BME280;7622;42.724;23.250;2023-11-19T00:31:18;94546.84;;;3.73;100.00
15050;BME280;7622;42.724;23.250;2023-11-19T00:33:45;94545.38;;;3.82;100.00
15050;BME280;7622;42.724;23.250;2023-11-19T00:36:13;94556.06;;;3.76;100.00
15050;BME280;7622;42.724;23.250;2023-11-19T00:38:39;94554.34;;;3.64;100.00
15050;BME280;7622;42.724;23.250;2023-11-19T00:41:07;94559.78;;;3.72;100.00
15050;BME280;7622;42.724;23.250;2023-11-19T00:43:37;94557.91;;;3.74;100.00
15050;BME280;7622;42.724;23.250;2023-11-19T00:46:07;94554.84;;;3.69;100.00
15050;BME280;7622;42.724;23.250;2023-11-19T00:48:36;94556.59;;;3.68;100.00
15050;BME280;7622;42.724;23.250;2023-11-19T00:51:03;94555.38;;;3.48;100.00
15050;BME280;7622;42.724;23.250;2023-11-19T00:53:32;94564.00;;;3.73;100.00
15050;BME280;7622;42.724;23.250;2023-11-19T00:55:59;94550.63;;;3.68;100.00
15050;BME280;7622;42.724;23.250;2023-11-19T00:58:26;94552.28;;;3.69;100.00
15050;BME280;7622;42.724;23.250;2023-11-19T01:00:53;94557.00;;;3.75;100.00
15050;BME280;7622;42.724;23.250;2023-11-19T01:03:19;94548.06;;;3.55;100.00
15050;BME280;7622;42.724;23.250;2023-11-19T01:05:46;94559.97;;;3.69;100.00
15050;BME280;7622;42.724;23.250;2023-11-19T01:08:13;94553.59;;;3.74;100.00
15050;BME280;7622;42.724;23.250;2023-11-19T01:10:42;94557.41;;;3.69;100.00
15050;BME280;7622;42.724;23.250;2023-11-19T01:13:09;94564.09;;;3.71;100.00
15050;BME280;7622;42.724;23.250;2023-11-19T01:15:36;94568.81;;;3.77;100.00
15050;BME280;7622;42.724;23.250;2023-11-19T01:18:03;94568.47;;;3.82;100.00
15050;BME280;7622;42.724;23.250;2023-11-19T01:20:30;94583.19;;;3.80;100.00
15050;BME280;7622;42.724;23.250;2023-11-19T01:22:59;94569.81;;;3.75;100.00
15050;BME280;7622;42.724;23.250;2023-11-19T01:25:26;94582.97;;;3.83;100.00
15050;BME280;7622;42.724;23.250;2023-11-19T01:27:54;94588.13;;;3.83;100.00
15050;BME280;7622;42.724;23.250;2023-11-19T01:30:23;94568.44;;;3.58;100.00
15050;BME280;7622;42.724;23.250;2023-11-19T01:32:50;94574.38;;;3.71;100.00
15050;BME280;7622;42.724;23.250;2023-11-19T01:35:17;94592.03;;;3.76;100.00
15050;BME280;7622;42.724;23.250;2023-11-19T01:37:45;94597.16;;;3.76;100.00
15050;BME280;7622;42.724;23.250;2023-11-19T01:40:14;94591.53;;;3.71;100.00
15050;BME280;7622;42.724;23.250;2023-11-19T01:42:42;94592.44;;;3.82;100.00
15050;BME280;7622;42.724;23.250;2023-11-19T01:45:22;94593.06;;;3.73;100.00
15050;BME280;7622;42.724;23.250;2023-11-19T01:47:50;94597.97;;;3.76;100.00
15050;BME280;7622;42.724;23.250;2023-11-19T01:50:17;94603.44;;;3.84;100.00
15050;BME280;7622;42.724;23.250;2023-11-19T01:52:45;94609.47;;;3.96;100.00
15050;BME280;7622;42.724;23.250;2023-11-19T01:55:13;94602.47;;;3.98;100.00
15050;BME280;7622;42.724;23.250;2023-11-19T01:57:40;94605.97;;;3.97;100.00
15050;BME280;7622;42.724;23.250;2023-11-19T02:00:09;94603.09;;;3.89;100.00
15050;BME280;7622;42.724;23.250;2023-11-19T02:02:39;94604.97;;;3.87;100.00
15050;BME280;7622;42.724;23.250;2023-11-19T02:05:06;94595.09;;;3.81;100.00
15050;BME280;7622;42.724;23.250;2023-11-19T02:07:33;94595.66;;;3.73;100.00
15050;BME280;7622;42.724;23.250;2023-11-19T02:10:00;94583.81;;;3.71;100.00
15050;BME280;7622;42.724;23.250;2023-11-19T02:12:28;94594.91;;;3.71;100.00
15050;BME280;7622;42.724;23.250;2023-11-19T02:14:54;94590.63;;;3.59;100.00
15050;BME280;7622;42.724;23.250;2023-11-19T02:17:28;94588.97;;;3.71;100.00
15050;BME280;7622;42.724;23.250;2023-11-19T02:19:58;94585.38;;;3.48;100.00
15050;BME280;7622;42.724;23.250;2023-11-19T02:22:26;94576.00;;;3.47;100.00
15050;BME280;7622;42.724;23.250;2023-11-19T02:25:00;94596.56;;;3.47;100.00
15050;BME280;7622;42.724;23.250;2023-11-19T02:27:38;94591.31;;;3.61;100.00
15050;BME280;7622;42.724;23.250;2023-11-19T02:30:06;94587.19;;;3.46;100.00
15050;BME280;7622;42.724;23.250;2023-11-19T02:32:34;94571.81;;;3.33;100.00
15050;BME280;7622;42.724;23.250;2023-11-19T02:35:01;94565.66;;;3.48;100.00
15050;BME280;7622;42.724;23.250;2023-11-19T02:37:28;94562.06;;;3.38;100.00
15050;BME280;7622;42.724;23.250;2023-11-19T02:39:55;94562.91;;;3.39;100.00
15050;BME280;7622;42.724;23.250;2023-11-19T02:42:21;94565.03;;;3.32;100.00
15050;BME280;7622;42.724;23.250;2023-11-19T02:44:50;94556.72;;;3.16;100.00
15050;BME280;7622;42.724;23.250;2023-11-19T02:47:16;94584.63;;;3.21;100.00
15050;BME280;7622;42.724;23.250;2023-11-19T02:49:46;94593.06;;;3.23;100.00
15050;BME280;7622;42.724;23.250;2023-11-19T02:52:13;94588.84;;;3.22;100.00
15050;BME280;7622;42.724;23.250;2023-11-19T02:54:42;94592.00;;;3.25;100.00
15050;BME280;7622;42.724;23.250;2023-11-19T02:57:09;94586.59;;;3.17;100.00
15050;BME280;7622;42.724;23.250;2023-11-19T02:59:38;94583.22;;;3.16;100.00
15050;BME280;7622;42.724;23.250;2023-11-19T03:02:09;94582.56;;;3.00;100.00
15050;BME280;7622;42.724;23.250;2023-11-19T03:04:37;94574.38;;;3.08;100.00
15050;BME280;7622;42.724;23.250;2023-11-19T03:07:05;94575.59;;;3.02;100.00
15050;BME280;7622;42.724;23.250;2023-11-19T03:09:32;94589.94;;;3.05;100.00
15050;BME280;7622;42.724;23.250;2023-11-19T03:11:59;94599.09;;;3.09;100.00
15050;BME280;7622;42.724;23.250;2023-11-19T03:14:26;94604.22;;;3.09;100.00
15050;BME280;7622;42.724;23.250;2023-11-19T03:16:52;94600.03;;;3.21;100.00
15050;BME280;7622;42.724;23.250;2023-11-19T03:19:20;94605.97;;;3.21;100.00
15050;BME280;7622;42.724;23.250;2023-11-19T03:21:47;94604.47;;;3.31;100.00
15050;BME280;7622;42.724;23.250;2023-11-19T03:24:14;94603.94;;;3.26;100.00
15050;BME280;7622;42.724;23.250;2023-11-19T03:26:44;94609.47;;;3.33;100.00
15050;BME280;7622;42.724;23.250;2023-11-19T03:29:16;94610.72;;;3.27;100.00
15050;BME280;7622;42.724;23.250;2023-11-19T03:31:45;94614.63;;;3.33;100.00
15050;BME280;7622;42.724;23.250;2023-11-19T03:34:11;94623.69;;;3.38;100.00
15050;BME280;7622;42.724;23.250;2023-11-19T03:36:39;94622.03;;;3.37;100.00
15050;BME280;7622;42.724;23.250;2023-11-19T03:39:06;94615.44;;;3.33;100.00
15050;BME280;7622;42.724;23.250;2023-11-19T03:41:34;94624.88;;;3.33;100.00
15050;BME280;7622;42.724;23.250;2023-11-19T03:44:02;94626.03;;;3.41;100.00
15050;BME280;7622;42.724;23.250;2023-11-19T03:46:29;94628.81;;;3.51;100.00
15050;BME280;7622;42.724;23.250;2023-11-19T03:48:56;94648.94;;;3.70;100.00
15050;BME280;7622;42.724;23.250;2023-11-19T03:51:22;94651.19;;;3.62;100.00
15050;BME280;7622;42.724;23.250;2023-11-19T03:53:52;94654.28;;;3.67;100.00
15050;BME280;7622;42.724;23.250;2023-11-19T03:56:21;94643.91;;;3.81;100.00
15050;BME280;7622;42.724;23.250;2023-11-19T03:58:49;94640.50;;;3.80;100.00
15050;BME280;7622;42.724;23.250;2023-11-19T04:01:17;94632.81;;;3.68;100.00
15050;BME280;7622;42.724;23.250;2023-11-19T04:03:44;94648.44;;;3.65;100.00
15050;BME280;7622;42.724;23.250;2023-11-19T04:06:11;94645.56;;;3.56;100.00
15050;BME280;7622;42.724;23.250;2023-11-19T04:08:37;94639.28;;;3.61;100.00
15050;BME280;7622;42.724;23.250;2023-11-19T04:11:06;94656.66;;;3.70;100.00
15050;BME280;7622;42.724;23.250;2023-11-19T04:13:34;94657.06;;;3.64;100.00
15050;BME280;7622;42.724;23.250;2023-11-19T04:16:00;94657.38;;;3.72;100.00
15050;BME280;7622;42.724;23.250;2023-11-19T04:18:27;94653.44;;;3.53;100.00
15050;BME280;7622;42.724;23.250;2023-11-19T04:20:55;94650.59;;;3.58;100.00
15050;BME280;7622;42.724;23.250;2023-11-19T04:23:23;94649.44;;;3.49;100.00
15050;BME280;7622;42.724;23.250;2023-11-19T04:25:52;94648.41;;;3.39;100.00
15050;BME280;7622;42.724;23.250;2023-11-19T04:28:22;94648.94;;;3.44;100.00
15050;BME280;7622;42.724;23.250;2023-11-19T04:30:52;94657.25;;;3.48;100.00
15050;BME280;7622;42.724;23.250;2023-11-19T04:33:19;94652.03;;;3.49;100.00
15050;BME280;7622;42.724;23.250;2023-11-19T04:35:45;94661.28;;;3.52;100.00
15050;BME280;7622;42.724;23.250;2023-11-19T04:38:12;94647.88;;;3.34;100.00
15050;BME280;7622;42.724;23.250;2023-11-19T04:40:39;94645.31;;;3.34;100.00
15050;BME280;7622;42.724;23.250;2023-11-19T04:43:07;94657.75;;;3.40;100.00
15050;BME280;7622;42.724;23.250;2023-11-19T04:45:35;94656.75;;;3.55;100.00
15050;BME280;7622;42.724;23.250;2023-11-19T04:48:02;94654.59;;;3.49;100.00
15050;BME280;7622;42.724;23.250;2023-11-19T04:50:29;94647.41;;;3.54;100.00
15050;BME280;7622;42.724;23.250;2023-11-19T04:52:56;94663.03;;;3.51;100.00
15050;BME280;7622;42.724;23.250;2023-11-19T04:55:22;94653.84;;;3.47;100.00
15050;BME280;7622;42.724;23.250;2023-11-19T04:57:50;94655.50;;;3.48;100.00
15050;BME280;7622;42.724;23.250;2023-11-19T05:00:22;94666.28;;;3.53;100.00
15050;BME280;7622;42.724;23.250;2023-11-19T05:02:52;94667.75;;;3.58;100.00
15050;BME280;7622;42.724;23.250;2023-11-19T05:05:19;94690.97;;;3.69;100.00
15050;BME280;7622;42.724;23.250;2023-11-19T05:07:46;94690.03;;;3.70;100.00
15050;BME280;7622;42.724;23.250;2023-11-19T05:10:13;94692.50;;;3.59;100.00
15050;BME280;7622;42.724;23.250;2023-11-19T05:12:39;94681.81;;;3.52;100.00
15050;BME280;7622;42.724;23.250;2023-11-19T05:15:07;94691.25;;;3.51;100.00
15050;BME280;7622;42.724;23.250;2023-11-19T05:17:34;94684.06;;;3.56;100.00
15050;BME280;7622;42.724;23.250;2023-11-19T05:20:05;94683.34;;;3.54;100.00
15050;BME280;7622;42.724;23.250;2023-11-19T05:22:38;94688.69;;;3.51;100.00
15050;BME280;7622;42.724;23.250;2023-11-19T05:25:06;94683.16;;;3.58;100.00
15050;BME280;7622;42.724;23.250;2023-11-19T05:27:34;94682.22;;;3.59;100.00
15050;BME280;7622;42.724;23.250;2023-11-19T05:30:01;94689.94;;;3.59;100.00
15050;BME280;7622;42.724;23.250;2023-11-19T05:32:28;94694.13;;;3.60;100.00
15050;BME280;7622;42.724;23.250;2023-11-19T05:34:54;94693.53;;;3.69;100.00
15050;BME280;7622;42.724;23.250;2023-11-19T05:37:23;94688.38;;;3.69;100.00
15050;BME280;7622;42.724;23.250;2023-11-19T05:39:50;94672.88;;;3.58;100.00
15050;BME280;7622;42.724;23.250;2023-11-19T05:42:17;94698.75;;;3.54;100.00
15050;BME280;7622;42.724;23.250;2023-11-19T05:44:44;94701.97;;;3.71;100.00
15050;BME280;7622;42.724;23.250;2023-11-19T05:47:12;94698.66;;;3.69;100.00
15050;BME280;7622;42.724;23.250;2023-11-19T05:49:40;94689.63;;;3.50;100.00
15050;BME280;7622;42.724;23.250;2023-11-19T05:52:07;94706.84;;;3.48;100.00
15050;BME280;7622;42.724;23.250;2023-11-19T05:54:36;94638.00;;;3.15;100.00
15050;BME280;7622;42.724;23.250;2023-11-19T05:57:04;94712.22;;;3.58;100.00
15050;BME280;7622;42.724;23.250;2023-11-19T05:59:31;94700.69;;;3.38;100.00
15050;BME280;7622;42.724;23.250;2023-11-19T06:01:58;94721.44;;;3.61;100.00
15050;BME280;7622;42.724;23.250;2023-11-19T06:04:25;94721.69;;;3.70;100.00
15050;BME280;7622;42.724;23.250;2023-11-19T06:06:52;94729.47;;;3.56;100.00
15050;BME280;7622;42.724;23.250;2023-11-19T06:09:20;94717.53;;;3.42;100.00
15050;BME280;7622;42.724;23.250;2023-11-19T06:11:50;94734.78;;;3.53;100.00
15050;BME280;7622;42.724;23.250;2023-11-19T06:14:17;94720.59;;;3.47;100.00
15050;BME280;7622;42.724;23.250;2023-11-19T06:16:44;94718.59;;;3.52;100.00
15050;BME280;7622;42.724;23.250;2023-11-19T06:19:11;94725.03;;;3.45;100.00
15050;BME280;7622;42.724;23.250;2023-11-19T06:21:38;94730.06;;;3.60;100.00
15050;BME280;7622;42.724;23.250;2023-11-19T06:24:05;94728.72;;;3.54;100.00
15050;BME280;7622;42.724;23.250;2023-11-19T06:26:32;94728.84;;;3.52;100.00
15050;BME280;7622;42.724;23.250;2023-11-19T06:29:00;94746.94;;;3.51;100.00
15050;BME280;7622;42.724;23.250;2023-11-19T06:31:27;94747.53;;;3.54;100.00
15050;BME280;7622;42.724;23.250;2023-11-19T06:33:55;94733.78;;;3.55;100.00
15050;BME280;7622;42.724;23.250;2023-11-19T06:36:24;94741.88;;;3.49;100.00
15050;BME280;7622;42.724;23.250;2023-11-19T06:38:53;94755.44;;;3.51;100.00
15050;BME280;7622;42.724;23.250;2023-11-19T06:41:20;94748.34;;;3.42;100.00
15050;BME280;7622;42.724;23.250;2023-11-19T06:43:47;94731.59;;;3.37;100.00
15050;BME280;7622;42.724;23.250;2023-11-19T06:46:16;94720.72;;;3.19;100.00
15050;BME280;7622;42.724;23.250;2023-11-19T06:48:43;94744.84;;;3.43;100.00
15050;BME280;7622;42.724;23.250;2023-11-19T06:51:11;94734.97;;;3.37;100.00
15050;BME280;7622;42.724;23.250;2023-11-19T06:53:41;94740.28;;;3.34;100.00
15050;BME280;7622;42.724;23.250;2023-11-19T06:56:18;94742.84;;;3.34;100.00
15050;BME280;7622;42.724;23.250;2023-11-19T06:58:45;94745.44;;;3.34;100.00
15050;BME280;7622;42.724;23.250;2023-11-19T07:01:13;94738.97;;;3.41;100.00
15050;BME280;7622;42.724;23.250;2023-11-19T07:03:41;94741.75;;;3.38;100.00
15050;BME280;7622;42.724;23.250;2023-11-19T07:06:08;94731.00;;;3.19;100.00
15050;BME280;7622;42.724;23.250;2023-11-19T07:08:38;94747.47;;;3.29;100.00
15050;BME280;7622;42.724;23.250;2023-11-19T07:11:05;94754.03;;;3.33;100.00
15050;BME280;7622;42.724;23.250;2023-11-19T07:13:31;94747.25;;;3.32;100.00
15050;BME280;7622;42.724;23.250;2023-11-19T07:15:58;94741.13;;;3.35;100.00
15050;BME280;7622;42.724;23.250;2023-11-19T07:18:25;94766.94;;;3.19;100.00
15050;BME280;7622;42.724;23.250;2023-11-19T07:20:53;94738.91;;;3.16;100.00
15050;BME280;7622;42.724;23.250;2023-11-19T07:23:20;94746.41;;;3.19;100.00
15050;BME280;7622;42.724;23.250;2023-11-19T07:25:47;94749.91;;;3.18;100.00
15050;BME280;7622;42.724;23.250;2023-11-19T07:28:15;94718.66;;;3.11;100.00
15050;BME280;7622;42.724;23.250;2023-11-19T07:30:43;94754.44;;;3.27;100.00
15050;BME280;7622;42.724;23.250;2023-11-19T07:33:09;94760.09;;;3.32;100.00
15050;BME280;7622;42.724;23.250;2023-11-19T07:35:37;94765.09;;;3.21;100.00
15050;BME280;7622;42.724;23.250;2023-11-19T07:38:05;94763.88;;;3.27;100.00
15050;BME280;7622;42.724;23.250;2023-11-19T07:40:32;94767.94;;;3.43;100.00
15050;BME280;7622;42.724;23.250;2023-11-19T07:42:58;94783.66;;;3.39;100.00
15050;BME280;7622;42.724;23.250;2023-11-19T07:45:25;94775.16;;;3.51;100.00
15050;BME280;7622;42.724;23.250;2023-11-19T07:47:52;94763.84;;;3.53;100.00
15050;BME280;7622;42.724;23.250;2023-11-19T07:50:21;94779.69;;;3.60;100.00
15050;BME280;7622;42.724;23.250;2023-11-19T07:52:48;94780.38;;;3.49;100.00
15050;BME280;7622;42.724;23.250;2023-11-19T07:55:16;94793.47;;;3.32;100.00
15050;BME280;7622;42.724;23.250;2023-11-19T07:57:43;94788.41;;;3.45;100.00
15050;BME280;7622;42.724;23.250;2023-11-19T08:00:11;94782.66;;;3.54;100.00
15050;BME280;7622;42.724;23.250;2023-11-19T08:02:37;94777.47;;;3.41;100.00
15050;BME280;7622;42.724;23.250;2023-11-19T08:05:05;94786.44;;;3.48;100.00
15050;BME280;7622;42.724;23.250;2023-11-19T08:07:32;94786.88;;;3.55;100.00
15050;BME280;7622;42.724;23.250;2023-11-19T08:09:59;94787.78;;;3.54;100.00
15050;BME280;7622;42.724;23.250;2023-11-19T08:12:27;94796.31;;;3.54;100.00
15050;BME280;7622;42.724;23.250;2023-11-19T08:14:54;94805.53;;;3.71;100.00
15050;BME280;7622;42.724;23.250;2023-11-19T08:17:21;94808.91;;;3.72;100.00
15050;BME280;7622;42.724;23.250;2023-11-19T08:19:48;94795.75;;;3.64;100.00
15050;BME280;7622;42.724;23.250;2023-11-19T08:22:15;94795.00;;;3.62;100.00
15050;BME280;7622;42.724;23.250;2023-11-19T08:24:43;94807.72;;;3.50;100.00
15050;BME280;7622;42.724;23.250;2023-11-19T08:27:09;94809.69;;;3.60;100.00
15050;BME280;7622;42.724;23.250;2023-11-19T08:29:37;94794.03;;;3.37;100.00
15050;BME280;7622;42.724;23.250;2023-11-19T08:32:05;94797.97;;;3.55;100.00
15050;BME280;7622;42.724;23.250;2023-11-19T08:34:32;94807.91;;;3.47;100.00
15050;BME280;7622;42.724;23.250;2023-11-19T08:37:00;94808.19;;;3.70;100.00
15050;BME280;7622;42.724;23.250;2023-11-19T08:39:26;94823.03;;;3.52;100.00
15050;BME280;7622;42.724;23.250;2023-11-19T08:41:53;94824.16;;;3.61;100.00
15050;BME280;7622;42.724;23.250;2023-11-19T08:44:20;94808.97;;;3.58;100.00
15050;BME280;7622;42.724;23.250;2023-11-19T08:46:49;94820.25;;;3.55;100.00
15050;BME280;7622;42.724;23.250;2023-11-19T08:49:16;94771.53;;;3.41;100.00
15050;BME280;7622;42.724;23.250;2023-11-19T08:51:43;94798.44;;;3.75;100.00
15050;BME280;7622;42.724;23.250;2023-11-19T08:54:10;94820.50;;;3.65;100.00
15050;BME280;7622;42.724;23.250;2023-11-19T08:56:38;94806.75;;;3.66;100.00
15050;BME280;7622;42.724;23.250;2023-11-19T08:59:04;94812.91;;;3.76;100.00
15050;BME280;7622;42.724;23.250;2023-11-19T09:01:31;94800.81;;;3.78;100.00
15050;BME280;7622;42.724;23.250;2023-11-19T09:03:59;94805.09;;;3.65;100.00
15050;BME280;7622;42.724;23.250;2023-11-19T09:06:26;94810.56;;;3.73;100.00
15050;BME280;7622;42.724;23.250;2023-11-19T09:08:53;94817.88;;;3.79;100.00
15050;BME280;7622;42.724;23.250;2023-11-19T09:11:23;94810.41;;;4.01;100.00
15050;BME280;7622;42.724;23.250;2023-11-19T09:13:50;94802.91;;;3.98;100.00
15050;BME280;7622;42.724;23.250;2023-11-19T09:16:17;94800.25;;;4.00;100.00
15050;BME280;7622;42.724;23.250;2023-11-19T09:18:44;94791.97;;;3.82;100.00
15050;BME280;7622;42.724;23.250;2023-11-19T09:21:12;94797.44;;;3.90;100.00
15050;BME280;7622;42.724;23.250;2023-11-19T09:23:39;94798.16;;;3.92;100.00
15050;BME280;7622;42.724;23.250;2023-11-19T09:26:06;94801.66;;;3.91;100.00
15050;BME280;7622;42.724;23.250;2023-11-19T09:28:32;94809.56;;;3.88;100.00
15050;BME280;7622;42.724;23.250;2023-11-19T09:30:59;94815.41;;;3.90;100.00
15050;BME280;7622;42.724;23.250;2023-11-19T09:33:26;94795.19;;;3.85;100.00
15050;BME280;7622;42.724;23.250;2023-11-19T09:35:53;94801.25;;;3.97;100.00
15050;BME280;7622;42.724;23.250;2023-11-19T09:38:21;94786.66;;;4.10;100.00
15050;BME280;7622;42.724;23.250;2023-11-19T09:40:47;94764.78;;;3.92;100.00
15050;BME280;7622;42.724;23.250;2023-11-19T09:43:15;94780.72;;;4.22;100.00
15050;BME280;7622;42.724;23.250;2023-11-19T09:45:48;94772.91;;;4.24;100.00
15050;BME280;7622;42.724;23.250;2023-11-19T09:48:16;94756.88;;;4.20;100.00
15050;BME280;7622;42.724;23.250;2023-11-19T09:50:44;94752.16;;;4.14;100.00
15050;BME280;7622;42.724;23.250;2023-11-19T09:53:11;94737.56;;;4.15;100.00
15050;BME280;7622;42.724;23.250;2023-11-19T09:55:39;94734.97;;;4.15;100.00
15050;BME280;7622;42.724;23.250;2023-11-19T09:58:06;94744.53;;;4.25;100.00
15050;BME280;7622;42.724;23.250;2023-11-19T10:00:33;94736.72;;;4.27;100.00
15050;BME280;7622;42.724;23.250;2023-11-19T10:03:00;94738.53;;;4.38;100.00
15050;BME280;7622;42.724;23.250;2023-11-19T10:05:30;94740.63;;;4.32;100.00
15050;BME280;7622;42.724;23.250;2023-11-19T10:07:58;94731.56;;;4.40;100.00
15050;BME280;7622;42.724;23.250;2023-11-19T10:10:24;94729.91;;;4.39;100.00
15050;BME280;7622;42.724;23.250;2023-11-19T10:12:53;94740.56;;;4.58;100.00
15050;BME280;7622;42.724;23.250;2023-11-19T10:15:21;94741.63;;;4.55;100.00
15050;BME280;7622;42.724;23.250;2023-11-19T10:17:49;94751.72;;;4.46;100.00
15050;BME280;7622;42.724;23.250;2023-11-19T10:20:17;94756.13;;;4.44;100.00
15050;BME280;7622;42.724;23.250;2023-11-19T10:22:44;94763.84;;;4.44;100.00
15050;BME280;7622;42.724;23.250;2023-11-19T10:25:22;94751.22;;;4.28;100.00
15050;BME280;7622;42.724;23.250;2023-11-19T10:27:49;94748.72;;;4.52;100.00
15050;BME280;7622;42.724;23.250;2023-11-19T10:30:20;94737.88;;;4.72;100.00
15050;BME280;7622;42.724;23.250;2023-11-19T10:33:02;94723.34;;;4.71;100.00
15050;BME280;7622;42.724;23.250;2023-11-19T10:35:29;94729.25;;;4.60;100.00
15050;BME280;7622;42.724;23.250;2023-11-19T10:37:56;94739.59;;;4.84;100.00
15050;BME280;7622;42.724;23.250;2023-11-19T10:40:37;94743.38;;;4.91;100.00
15050;BME280;7622;42.724;23.250;2023-11-19T10:43:05;94739.22;;;5.01;100.00
15050;BME280;7622;42.724;23.250;2023-11-19T10:45:34;94744.22;;;5.15;100.00
15050;BME280;7622;42.724;23.250;2023-11-19T10:48:02;94736.38;;;4.93;100.00
15050;BME280;7622;42.724;23.250;2023-11-19T10:50:32;94746.78;;;4.92;100.00
15050;BME280;7622;42.724;23.250;2023-11-19T10:52:59;94737.84;;;4.85;100.00
15050;BME280;7622;42.724;23.250;2023-11-19T10:55:28;94720.06;;;4.82;100.00
15050;BME280;7622;42.724;23.250;2023-11-19T10:57:59;94746.66;;;4.93;100.00
15050;BME280;7622;42.724;23.250;2023-11-19T11:00:29;94738.06;;;4.82;100.00
15050;BME280;7622;42.724;23.250;2023-11-19T11:03:01;94726.72;;;4.84;100.00
15050;BME280;7622;42.724;23.250;2023-11-19T11:05:32;94717.63;;;4.91;100.00
15050;BME280;7622;42.724;23.250;2023-11-19T11:08:00;94709.94;;;5.15;100.00
15050;BME280;7622;42.724;23.250;2023-11-19T11:10:28;94678.13;;;5.16;100.00
15050;BME280;7622;42.724;23.250;2023-11-19T11:12:59;94706.38;;;5.64;100.00
15050;BME280;7622;42.724;23.250;2023-11-19T11:15:30;94695.25;;;5.63;100.00
15050;BME280;7622;42.724;23.250;2023-11-19T11:18:00;94700.69;;;5.82;100.00
15050;BME280;7622;42.724;23.250;2023-11-19T11:20:29;94693.59;;;5.62;100.00
15050;BME280;7622;42.724;23.250;2023-11-19T11:23:16;94687.16;;;5.57;100.00
15050;BME280;7622;42.724;23.250;2023-11-19T11:25:53;94693.69;;;5.49;100.00
15050;BME280;7622;42.724;23.250;2023-11-19T11:28:30;94690.13;;;5.74;100.00
15050;BME280;7622;42.724;23.250;2023-11-19T11:31:09;94680.25;;;5.92;100.00
15050;BME280;7622;42.724;23.250;2023-11-19T11:33:57;94668.22;;;5.69;100.00
15050;BME280;7622;42.724;23.250;2023-11-19T11:36:26;94690.72;;;6.35;100.00
15050;BME280;7622;42.724;23.250;2023-11-19T11:38:53;94680.69;;;7.29;100.00
15050;BME280;7622;42.724;23.250;2023-11-19T11:41:25;94680.66;;;7.82;91.65
15050;BME280;7622;42.724;23.250;2023-11-19T11:43:53;94675.28;;;8.15;82.80
15050;BME280;7622;42.724;23.250;2023-11-19T11:46:55;94682.28;;;8.04;79.54
15050;BME280;7622;42.724;23.250;2023-11-19T11:49:27;94660.16;;;7.90;76.24
15050;BME280;7622;42.724;23.250;2023-11-19T11:51:59;94666.84;;;8.44;75.17
15050;BME280;7622;42.724;23.250;2023-11-19T11:54:28;94663.41;;;8.34;74.02
15050;BME280;7622;42.724;23.250;2023-11-19T11:57:08;94681.59;;;8.22;73.64
15050;BME280;7622;42.724;23.250;2023-11-19T11:59:53;94665.53;;;8.28;72.45
15050;BME280;7622;42.724;23.250;2023-11-19T12:02:21;94675.00;;;8.18;75.96
15050;BME280;7622;42.724;23.250;2023-11-19T12:04:51;94668.31;;;7.85;74.37
15050;BME280;7622;42.724;23.250;2023-11-19T12:07:20;94661.09;;;7.68;75.40
15050;BME280;7622;42.724;23.250;2023-11-19T12:09:50;94657.69;;;7.47;79.53
15050;BME280;7622;42.724;23.250;2023-11-19T12:12:20;94649.81;;;7.69;78.89
15050;BME280;7622;42.724;23.250;2023-11-19T12:15:05;94657.97;;;7.65;78.22
15050;BME280;7622;42.724;23.250;2023-11-19T12:17:43;94654.25;;;7.58;79.73
15050;BME280;7622;42.724;23.250;2023-11-19T12:20:17;94622.50;;;7.35;82.98
15050;BME280;7622;42.724;23.250;2023-11-19T12:22:44;94648.91;;;7.18;89.40
15050;BME280;7622;42.724;23.250;2023-11-19T12:25:13;94644.09;;;7.45;85.87
15050;BME280;7622;42.724;23.250;2023-11-19T12:27:40;94632.53;;;7.28;85.32
15050;BME280;7622;42.724;23.250;2023-11-19T12:30:08;94645.09;;;7.33;85.27
15050;BME280;7622;42.724;23.250;2023-11-19T12:32:43;94636.56;;;7.21;89.82
15050;BME280;7622;42.724;23.250;2023-11-19T12:35:13;94634.97;;;7.09;89.72
15050;BME280;7622;42.724;23.250;2023-11-19T12:37:44;94632.22;;;7.22;87.46
15050;BME280;7622;42.724;23.250;2023-11-19T12:40:18;94625.69;;;6.75;92.83
15050;BME280;7622;42.724;23.250;2023-11-19T12:42:47;94620.97;;;6.80;93.64
15050;BME280;7622;42.724;23.250;2023-11-19T12:45:14;94621.94;;;6.67;95.84
15050;BME280;7622;42.724;23.250;2023-11-19T12:47:43;94621.56;;;6.72;95.15
15050;BME280;7622;42.724;23.250;2023-11-19T12:50:12;94612.13;;;6.50;97.06
15050;BME280;7622;42.724;23.250;2023-11-19T12:52:39;94615.34;;;6.75;95.68
15050;BME280;7622;42.724;23.250;2023-11-19T12:55:25;94610.34;;;6.51;99.27
15050;BME280;7622;42.724;23.250;2023-11-19T12:57:52;94615.97;;;6.67;98.24
15050;BME280;7622;42.724;23.250;2023-11-19T13:00:21;94601.28;;;6.67;97.63
15050;BME280;7622;42.724;23.250;2023-11-19T13:02:49;94605.53;;;6.57;98.72
15050;BME280;7622;42.724;23.250;2023-11-19T13:05:24;94600.06;;;6.40;96.56
15050;BME280;7622;42.724;23.250;2023-11-19T13:07:58;94596.88;;;6.47;96.92
15050;BME280;7622;42.724;23.250;2023-11-19T13:10:26;94586.13;;;6.42;95.01